Time;durP1;ratioP1;P1;durP2;ratioP2;P2;SDS_P1;SDS_P2;PMS_P1;PMS_P2;Temp;Humidity;BMP_temperature;BMP_pressure;BME280_temperature;BME280_humidity;BME280_pressure;Samples;Min_cycle;Max_cycle;Signal;HPM_P1;HPM_P2
2022/09/15 00:00:52;;;;;;;11.90;9.20;;;17.20;99.90;;;;;;5047557;28;20028;-75
2022/09/15 00:03:18;;;;;;;9.85;8.90;;;17.30;99.90;;;;;;5039880;28;20071;-75
2022/09/15 00:05:44;;;;;;;11.35;8.98;;;17.30;99.90;;;;;;5048149;28;20434;-75
2022/09/15 00:08:11;;;;;;;11.60;9.40;;;17.30;99.90;;;;;;5037608;28;20022;-74
2022/09/15 00:10:38;;;;;;;10.45;9.35;;;17.30;99.90;;;;;;5046448;28;20514;-73
2022/09/15 00:13:04;;;;;;;13.45;10.20;;;17.30;99.90;;;;;;5043209;28;20025;-74
2022/09/15 00:15:29;;;;;;;13.45;10.32;;;17.30;99.90;;;;;;5039453;28;20071;-74
2022/09/15 00:17:55;;;;;;;16.30;10.80;;;17.20;99.90;;;;;;5048123;28;20028;-75
2022/09/15 00:20:21;;;;;;;12.85;10.40;;;17.30;99.90;;;;;;5044255;28;20108;-74
2022/09/15 00:22:47;;;;;;;12.13;8.70;;;17.30;99.90;;;;;;5031930;28;20021;-75
2022/09/15 00:25:14;;;;;;;10.75;9.57;;;17.20;99.90;;;;;;5031758;28;20026;-75
2022/09/15 00:27:40;;;;;;;9.60;8.63;;;17.20;99.90;;;;;;5044350;28;20029;-74
2022/09/15 00:30:06;;;;;;;12.00;8.82;;;17.10;99.90;;;;;;5045435;28;20025;-73
2022/09/15 00:32:32;;;;;;;10.18;7.35;;;17.20;99.90;;;;;;5050588;28;20448;-73
2022/09/15 00:34:57;;;;;;;8.18;6.72;;;17.10;99.90;;;;;;5048305;28;20021;-72
2022/09/15 00:37:23;;;;;;;7.82;6.53;;;17.20;99.90;;;;;;5045681;28;20025;-73
2022/09/15 00:39:49;;;;;;;7.28;6.20;;;17.20;99.90;;;;;;5052220;28;20032;-73
2022/09/15 00:42:20;;;;;;;8.50;6.47;;;17.10;99.90;;;;;;5057305;28;20021;-73
2022/09/15 00:45:01;;;;;;;9.80;6.43;;;17.30;99.90;;;;;;5032358;28;20503;-73
2022/09/15 00:47:32;;;;;;;8.82;6.55;;;17.10;99.90;;;;;;5041058;28;20025;-74
2022/09/15 00:50:07;;;;;;;8.27;6.70;;;17.00;99.90;;;;;;5038808;28;20036;-74
2022/09/15 00:52:45;;;;;;;9.23;6.87;;;17.10;99.90;;;;;;5040987;28;20041;-74
2022/09/15 00:55:17;;;;;;;9.18;6.90;;;17.10;99.90;;;;;;5045440;28;20260;-76
2022/09/15 00:58:02;;;;;;;8.45;6.97;;;17.00;99.90;;;;;;5044264;28;20074;-75
2022/09/15 01:00:28;;;;;;;7.70;6.88;;;17.10;99.90;;;;;;5042589;28;20036;-77
2022/09/15 01:02:55;;;;;;;8.32;6.78;;;17.00;99.90;;;;;;5045154;28;20021;-76
2022/09/15 01:05:24;;;;;;;7.40;6.15;;;17.00;99.90;;;;;;5036826;28;20021;-76
2022/09/15 01:08:04;;;;;;;8.68;7.28;;;17.00;99.90;;;;;;5046166;28;20552;-74
2022/09/15 01:10:35;;;;;;;9.07;7.32;;;17.00;99.90;;;;;;5042366;28;20043;-73
2022/09/15 01:13:07;;;;;;;7.53;6.63;;;17.00;99.90;;;;;;5034508;28;20017;-74
2022/09/15 01:15:54;;;;;;;8.18;6.40;;;17.00;99.90;;;;;;5040197;28;20495;-73
2022/09/15 01:18:34;;;;;;;6.35;5.60;;;17.00;99.90;;;;;;5038958;28;20483;-73
2022/09/15 01:21:26;;;;;;;8.80;6.97;;;17.20;99.90;;;;;;5053362;28;20564;-72
2022/09/15 01:24:13;;;;;;;7.10;5.82;;;17.10;99.90;;;;;;5054308;28;20042;-73
2022/09/15 01:26:41;;;;;;;9.85;6.53;;;17.00;99.90;;;;;;5040896;28;20025;-73
2022/09/15 01:29:46;;;;;;;7.82;6.45;;;17.20;99.90;;;;;;5031369;28;20033;-74
2022/09/15 01:35:24;;;;;;;7.60;5.78;;;17.00;99.90;;;;;;5043709;28;20128;-73
2022/09/15 01:38:29;;;;;;;8.10;6.22;;;17.10;99.90;;;;;;5043375;28;20045;-73
2022/09/15 01:41:05;;;;;;;7.40;6.65;;;17.00;99.90;;;;;;5053977;28;20029;-73
2022/09/15 01:43:34;;;;;;;7.43;6.07;;;17.00;99.90;;;;;;5039402;28;20014;-73
2022/09/15 01:46:02;;;;;;;8.52;6.53;;;17.00;99.90;;;;;;5031546;28;20629;-73
2022/09/15 01:48:30;;;;;;;8.85;6.53;;;16.90;99.90;;;;;;5029831;28;20067;-72
2022/09/15 01:50:59;;;;;;;7.65;6.55;;;17.00;99.90;;;;;;5030097;28;20083;-72
2022/09/15 01:53:25;;;;;;;8.82;6.50;;;17.00;99.90;;;;;;5031372;28;20068;-72
2022/09/15 01:56:10;;;;;;;12.05;6.45;;;17.10;99.90;;;;;;5031367;28;20044;-72
2022/09/15 01:58:38;;;;;;;7.35;5.85;;;16.70;99.90;;;;;;5029717;28;20034;-74
2022/09/15 02:01:28;;;;;;;9.48;6.47;;;16.80;99.90;;;;;;5031461;28;20044;-75
2022/09/15 02:04:05;;;;;;;8.70;7.10;;;16.90;99.90;;;;;;5031688;28;20056;-74
2022/09/15 02:06:36;;;;;;;9.43;6.90;;;16.90;99.90;;;;;;5059951;28;20109;-74
2022/09/15 02:09:21;;;;;;;10.35;7.75;;;16.90;99.90;;;;;;5040632;28;20082;-74
2022/09/15 02:12:01;;;;;;;11.18;7.78;;;16.90;99.90;;;;;;5039350;28;20025;-73
2022/09/15 02:14:41;;;;;;;11.55;7.75;;;16.90;99.90;;;;;;5044576;28;20391;-73
2022/09/15 02:17:13;;;;;;;11.93;7.80;;;17.10;99.90;;;;;;5040908;28;20025;-75
2022/09/15 02:19:43;;;;;;;11.50;8.20;;;16.80;99.90;;;;;;5043225;28;20037;-75
2022/09/15 02:22:16;;;;;;;8.50;7.70;;;16.50;99.90;;;;;;5039149;28;20030;-75
2022/09/15 02:24:50;;;;;;;9.35;7.70;;;16.80;99.90;;;;;;5049163;28;20477;-75
2022/09/15 02:27:21;;;;;;;10.55;7.13;;;16.80;99.90;;;;;;5037690;28;20359;-76
2022/09/15 02:29:48;;;;;;;11.02;7.43;;;16.70;99.90;;;;;;5043012;28;20053;-75
2022/09/15 02:32:17;;;;;;;10.43;7.90;;;16.80;99.90;;;;;;5045864;28;20502;-76
2022/09/15 02:34:46;;;;;;;8.77;7.88;;;17.00;99.90;;;;;;5045319;28;20025;-74
2022/09/15 02:37:13;;;;;;;7.78;7.00;;;16.80;99.90;;;;;;5050965;28;20024;-75
2022/09/15 02:39:44;;;;;;;9.68;6.90;;;16.70;99.90;;;;;;5053166;28;20394;-74
2022/09/15 02:42:10;;;;;;;8.38;7.03;;;16.70;99.90;;;;;;5051648;28;20028;-74
2022/09/15 02:44:36;;;;;;;13.55;7.60;;;16.80;99.90;;;;;;5034929;28;20025;-74
2022/09/15 02:47:02;;;;;;;9.43;7.65;;;16.80;99.90;;;;;;5046369;28;20475;-73
2022/09/15 02:49:28;;;;;;;10.27;7.25;;;16.80;99.90;;;;;;5034900;28;20040;-74
2022/09/15 02:51:54;;;;;;;9.20;7.13;;;16.70;99.90;;;;;;5048047;28;20029;-74
2022/09/15 02:54:19;;;;;;;8.02;7.22;;;16.70;99.90;;;;;;5042853;28;20104;-76
2022/09/15 02:56:46;;;;;;;8.80;7.15;;;16.70;99.90;;;;;;5042042;28;20118;-76
2022/09/15 02:59:12;;;;;;;8.48;6.78;;;16.70;99.90;;;;;;5054748;28;20029;-75
2022/09/15 03:01:37;;;;;;;7.93;7.05;;;16.70;99.90;;;;;;5051170;28;20044;-75
2022/09/15 03:04:03;;;;;;;9.50;7.40;;;16.60;99.90;;;;;;5054270;28;20687;-73
2022/09/15 03:06:33;;;;;;;10.18;7.57;;;16.70;99.90;;;;;;5054368;28;20028;-74
2022/09/15 03:09:01;;;;;;;10.60;7.53;;;16.70;99.90;;;;;;5044506;28;20028;-74
2022/09/15 03:11:28;;;;;;;11.18;7.43;;;16.70;99.90;;;;;;5037717;28;20056;-73
2022/09/15 03:13:56;;;;;;;13.63;8.32;;;16.70;99.90;;;;;;5044816;28;20037;-74
2022/09/15 03:16:22;;;;;;;13.05;10.50;;;16.70;99.90;;;;;;5039640;28;20700;-72
2022/09/15 03:18:48;;;;;;;22.88;16.42;;;16.70;99.90;;;;;;5042034;28;20090;-74
2022/09/15 03:21:15;;;;;;;13.75;12.25;;;16.70;99.90;;;;;;5047290;28;20022;-74
2022/09/15 03:23:41;;;;;;;11.48;10.02;;;16.70;99.90;;;;;;5045554;28;20043;-73
2022/09/15 03:26:08;;;;;;;13.05;9.85;;;16.60;99.90;;;;;;5035492;28;20026;-74
2022/09/15 03:28:35;;;;;;;8.90;8.00;;;16.60;99.90;;;;;;5039570;28;20502;-73
2022/09/15 03:31:01;;;;;;;10.57;8.93;;;16.60;99.90;;;;;;5047070;28;20403;-73
2022/09/15 03:33:26;;;;;;;11.57;8.98;;;16.60;99.90;;;;;;5044242;28;20021;-75
2022/09/15 03:35:52;;;;;;;8.77;7.60;;;16.50;99.90;;;;;;5038786;28;20052;-73
2022/09/15 03:38:18;;;;;;;10.75;7.85;;;16.50;99.90;;;;;;5041513;28;20091;-73
2022/09/15 03:40:55;;;;;;;10.13;8.05;;;16.50;99.90;;;;;;5045714;28;20116;-72
2022/09/15 03:43:20;;;;;;;11.80;8.20;;;16.50;99.90;;;;;;5033559;28;20064;-72
2022/09/15 03:45:46;;;;;;;10.02;8.77;;;16.50;99.90;;;;;;5048659;28;20045;-74
2022/09/15 03:48:11;;;;;;;15.23;11.02;;;16.60;99.90;;;;;;5039429;28;20025;-73
2022/09/15 03:50:37;;;;;;;14.88;11.95;;;16.50;99.90;;;;;;5039221;28;20055;-74
2022/09/15 03:53:02;;;;;;;11.20;10.10;;;16.50;99.90;;;;;;5039592;28;20059;-73
2022/09/15 03:55:28;;;;;;;18.98;11.18;;;16.50;99.90;;;;;;5047503;28;20026;-72
2022/09/15 03:57:54;;;;;;;12.85;11.13;;;16.50;99.90;;;;;;5041002;28;20026;-73
2022/09/15 04:00:21;;;;;;;13.38;11.25;;;16.50;99.90;;;;;;5046510;28;20044;-74
2022/09/15 04:02:47;;;;;;;15.65;11.90;;;16.60;99.90;;;;;;5045313;28;20059;-73
2022/09/15 04:05:12;;;;;;;16.20;10.93;;;16.30;99.90;;;;;;5045551;28;20025;-74
2022/09/15 04:07:41;;;;;;;12.35;11.05;;;16.50;99.90;;;;;;5052636;28;20048;-74
2022/09/15 04:10:07;;;;;;;14.38;11.30;;;16.50;99.90;;;;;;5046409;28;20025;-73
2022/09/15 04:12:34;;;;;;;14.23;10.77;;;16.50;99.90;;;;;;5045034;28;20120;-73
2022/09/15 04:15:00;;;;;;;13.82;10.88;;;16.60;99.90;;;;;;5039698;28;20021;-75
2022/09/15 04:17:26;;;;;;;12.45;10.00;;;16.60;99.90;;;;;;5052491;28;20029;-76
2022/09/15 04:19:51;;;;;;;12.43;10.63;;;16.60;99.90;;;;;;5032822;28;20365;-75
2022/09/15 04:22:17;;;;;;;13.43;8.60;;;16.60;99.90;;;;;;5044635;28;20028;-74
2022/09/15 04:24:43;;;;;;;9.10;8.20;;;16.60;99.90;;;;;;5039014;28;20402;-74
2022/09/15 04:27:08;;;;;;;11.85;7.97;;;16.40;99.90;;;;;;5039286;28;20037;-74
2022/09/15 04:29:34;;;;;;;11.48;8.10;;;16.60;99.90;;;;;;5037672;28;20021;-74
2022/09/15 04:31:59;;;;;;;10.65;9.35;;;16.60;99.90;;;;;;5052666;28;20029;-74
2022/09/15 04:34:25;;;;;;;12.43;10.00;;;16.60;99.90;;;;;;5051160;28;20078;-74
2022/09/15 04:36:51;;;;;;;8.55;7.38;;;16.70;99.90;;;;;;5052355;28;20067;-74
2022/09/15 04:39:16;;;;;;;10.52;7.20;;;16.70;99.90;;;;;;5052397;28;20508;-74
2022/09/15 04:41:42;;;;;;;4.97;4.18;;;16.60;99.90;;;;;;5051254;28;20025;-74
2022/09/15 04:44:07;;;;;;;4.18;3.13;;;16.60;99.90;;;;;;5038983;28;20501;-74
2022/09/15 04:46:33;;;;;;;2.50;2.15;;;16.50;99.90;;;;;;5052332;28;20475;-74
2022/09/15 04:48:58;;;;;;;3.85;1.80;;;16.20;99.90;;;;;;5050849;28;20033;-74
2022/09/15 04:51:24;;;;;;;3.10;1.75;;;16.20;99.90;;;;;;5039290;28;20029;-74
2022/09/15 04:53:50;;;;;;;1.67;1.38;;;16.10;99.90;;;;;;5045573;28;20025;-72
2022/09/15 04:56:22;;;;;;;2.45;1.10;;;16.10;99.90;;;;;;5032089;28;20021;-75
2022/09/15 04:58:50;;;;;;;1.95;1.40;;;16.30;99.90;;;;;;5030284;28;20029;-74
2022/09/15 05:01:19;;;;;;;1.55;1.20;;;16.10;99.90;;;;;;5045562;28;20095;-75
2022/09/15 05:03:45;;;;;;;1.90;0.80;;;16.20;99.90;;;;;;5039520;28;20021;-75
2022/09/15 05:06:14;;;;;;;2.53;1.17;;;16.00;99.90;;;;;;5050583;28;20075;-75
2022/09/15 05:08:40;;;;;;;1.75;1.30;;;16.00;99.90;;;;;;5043483;28;20119;-75
2022/09/15 05:11:09;;;;;;;1.40;1.00;;;15.90;99.90;;;;;;5033642;28;20021;-74
2022/09/15 05:13:35;;;;;;;1.45;1.05;;;16.00;99.90;;;;;;5051962;28;20049;-75
2022/09/15 05:16:10;;;;;;;1.30;1.13;;;15.90;99.90;;;;;;5038658;28;20432;-74
2022/09/15 05:18:37;;;;;;;4.45;1.30;;;16.00;99.90;;;;;;5041413;28;20483;-74
2022/09/15 05:21:04;;;;;;;3.47;1.60;;;15.90;99.90;;;;;;5045066;28;20068;-75
2022/09/15 05:23:31;;;;;;;1.88;1.67;;;15.80;99.90;;;;;;5052422;28;20025;-75
2022/09/15 05:26:01;;;;;;;2.38;1.58;;;15.80;99.90;;;;;;5038445;28;20021;-75
2022/09/15 05:28:27;;;;;;;4.32;1.90;;;15.90;99.90;;;;;;5040144;28;20026;-74
2022/09/15 05:30:54;;;;;;;2.80;1.80;;;15.90;99.90;;;;;;5045242;28;20037;-75
2022/09/15 05:33:21;;;;;;;4.32;1.92;;;16.10;99.90;;;;;;5031626;28;20023;-71
2022/09/15 05:35:55;;;;;;;3.70;1.92;;;16.10;99.90;;;;;;5031488;28;20025;-72
2022/09/15 05:38:21;;;;;;;2.15;1.75;;;16.00;99.90;;;;;;5044184;28;20387;-75
2022/09/15 05:40:47;;;;;;;3.13;2.08;;;16.10;99.90;;;;;;5038942;28;20025;-74
2022/09/15 05:43:13;;;;;;;2.72;1.80;;;16.10;99.90;;;;;;5037992;28;20038;-75
2022/09/15 05:45:41;;;;;;;3.30;2.00;;;15.80;99.90;;;;;;5049701;28;20028;-74
2022/09/15 05:48:10;;;;;;;3.05;2.22;;;15.90;99.90;;;;;;5048964;28;20064;-77
2022/09/15 05:50:37;;;;;;;4.05;2.55;;;15.90;99.90;;;;;;5042832;28;20022;-75
2022/09/15 05:53:04;;;;;;;2.85;2.17;;;15.90;99.90;;;;;;5031805;28;20586;-75
2022/09/15 05:55:29;;;;;;;3.63;2.38;;;15.90;99.90;;;;;;5038158;28;20025;-75
2022/09/15 05:57:55;;;;;;;3.63;2.70;;;15.80;99.90;;;;;;5037826;28;20029;-75
2022/09/15 06:00:20;;;;;;;3.55;2.65;;;15.80;99.90;;;;;;5043468;28;20033;-75
2022/09/15 06:02:46;;;;;;;4.40;3.17;;;15.80;99.90;;;;;;5043607;28;20024;-75
2022/09/15 06:05:12;;;;;;;4.13;3.58;;;15.90;99.90;;;;;;5043015;28;20029;-74
2022/09/15 06:07:38;;;;;;;4.82;4.32;;;15.90;99.90;;;;;;5038517;28;20025;-75
2022/09/15 06:10:04;;;;;;;6.07;4.70;;;15.90;99.90;;;;;;5052896;28;20033;-75
2022/09/15 06:12:29;;;;;;;6.95;4.72;;;15.90;99.90;;;;;;5059933;28;20038;-75
2022/09/15 06:14:55;;;;;;;8.13;6.15;;;15.90;99.90;;;;;;5035803;28;20022;-75
2022/09/15 06:17:22;;;;;;;8.25;6.90;;;16.00;99.90;;;;;;5047790;28;20021;-74
2022/09/15 06:19:48;;;;;;;7.40;6.60;;;15.90;99.90;;;;;;5035241;28;20018;-74
2022/09/15 06:22:14;;;;;;;7.70;6.90;;;15.90;99.90;;;;;;5046961;28;20032;-75
2022/09/15 06:24:39;;;;;;;8.00;7.20;;;15.80;99.90;;;;;;5049298;28;20021;-74
2022/09/15 06:27:05;;;;;;;7.68;6.88;;;15.80;99.90;;;;;;5034780;28;20470;-74
2022/09/15 06:29:31;;;;;;;7.85;7.05;;;15.80;99.90;;;;;;5034770;28;20519;-74
2022/09/15 06:32:01;;;;;;;9.23;7.47;;;15.80;99.90;;;;;;5047477;28;20102;-74
2022/09/15 06:34:28;;;;;;;6.43;5.38;;;15.80;99.90;;;;;;5048326;28;20021;-74
2022/09/15 06:36:53;;;;;;;6.30;5.65;;;15.80;99.90;;;;;;5047687;28;20498;-74
2022/09/15 06:39:19;;;;;;;6.97;6.22;;;15.80;99.90;;;;;;5054482;28;20035;-73
2022/09/15 06:41:45;;;;;;;4.93;4.22;;;15.80;99.90;;;;;;5053715;28;20480;-75
2022/09/15 06:44:11;;;;;;;4.63;4.22;;;15.60;99.90;;;;;;5038581;28;20022;-74
2022/09/15 06:46:37;;;;;;;4.22;3.83;;;15.50;99.90;;;;;;5043503;28;20494;-74
2022/09/15 06:49:02;;;;;;;3.70;3.40;;;15.30;99.90;;;;;;5046827;28;20039;-74
2022/09/15 06:51:34;;;;;;;4.05;3.40;;;15.40;99.90;;;;;;5042322;28;20033;-74
2022/09/15 06:54:01;;;;;;;5.07;3.20;;;15.40;99.90;;;;;;5045740;28;20108;-73
2022/09/15 06:56:27;;;;;;;5.38;3.70;;;15.40;99.90;;;;;;5045570;28;20020;-75
2022/09/15 06:58:52;;;;;;;4.18;3.10;;;15.40;99.90;;;;;;5053296;28;20359;-74
2022/09/15 07:01:30;;;;;;;3.20;2.90;;;15.40;99.90;;;;;;5048515;28;20048;-74
2022/09/15 07:03:57;;;;;;;4.00;2.60;;;15.50;99.90;;;;;;5044421;28;20021;-74
2022/09/15 07:06:23;;;;;;;2.47;2.28;;;15.40;99.90;;;;;;5051494;28;20032;-74
2022/09/15 07:08:49;;;;;;;3.22;2.80;;;15.30;99.90;;;;;;5033817;28;20033;-75
2022/09/15 07:11:17;;;;;;;3.85;2.67;;;15.30;99.90;;;;;;5045550;28;20090;-74
2022/09/15 07:13:42;;;;;;;3.17;2.55;;;15.40;99.90;;;;;;5036149;28;20025;-74
2022/09/15 07:16:11;;;;;;;3.53;2.45;;;15.40;99.90;;;;;;5050748;28;20022;-74
2022/09/15 07:18:37;;;;;;;3.42;2.72;;;15.40;99.90;;;;;;5042299;28;20379;-74
2022/09/15 07:21:05;;;;;;;3.75;2.65;;;15.40;99.90;;;;;;5054048;28;20021;-74
2022/09/15 07:23:33;;;;;;;4.30;2.90;;;15.40;99.90;;;;;;5043434;28;20057;-74
2022/09/15 07:26:05;;;;;;;3.67;2.83;;;15.40;99.90;;;;;;5032618;28;20044;-73
2022/09/15 07:28:31;;;;;;;4.00;2.63;;;15.40;99.90;;;;;;5033455;28;20059;-74
2022/09/15 07:30:57;;;;;;;3.05;2.70;;;15.30;99.90;;;;;;5038545;28;20446;-75
2022/09/15 07:33:22;;;;;;;3.55;3.03;;;15.30;99.90;;;;;;5052373;28;20039;-74
2022/09/15 07:35:48;;;;;;;4.07;3.40;;;15.30;99.90;;;;;;5053617;28;20031;-74
2022/09/15 07:38:13;;;;;;;5.72;3.78;;;15.30;99.90;;;;;;5051995;28;20091;-74
2022/09/15 07:40:39;;;;;;;6.50;4.60;;;15.20;99.90;;;;;;5053370;28;20471;-75
2022/09/15 07:43:05;;;;;;;7.05;4.38;;;15.20;99.90;;;;;;5052147;28;20025;-74
2022/09/15 07:45:31;;;;;;;5.55;3.80;;;15.20;99.90;;;;;;5052477;28;20025;-73
2022/09/15 07:47:57;;;;;;;5.13;3.78;;;15.20;99.90;;;;;;5053026;28;20478;-74
2022/09/15 07:50:23;;;;;;;5.20;3.58;;;15.30;99.90;;;;;;5053302;28;20035;-74
2022/09/15 07:52:48;;;;;;;4.45;4.05;;;15.20;99.90;;;;;;5051993;28;20104;-74
2022/09/15 07:55:14;;;;;;;4.40;3.65;;;15.30;99.90;;;;;;5047122;28;20028;-75
2022/09/15 07:57:40;;;;;;;4.38;3.88;;;15.20;99.90;;;;;;5043580;28;20037;-75
2022/09/15 08:00:06;;;;;;;3.92;3.58;;;15.20;99.90;;;;;;5037733;28;20029;-75
2022/09/15 08:02:32;;;;;;;5.47;4.50;;;15.40;99.90;;;;;;5033042;28;20045;-76
2022/09/15 08:04:57;;;;;;;3.50;3.20;;;15.40;99.90;;;;;;5042473;28;20056;-77
2022/09/15 08:07:23;;;;;;;4.30;3.88;;;15.50;99.90;;;;;;5044191;28;20017;-75
2022/09/15 08:09:49;;;;;;;4.57;4.10;;;15.50;99.90;;;;;;5052766;28;20410;-75
2022/09/15 08:12:15;;;;;;;4.30;3.90;;;15.60;99.90;;;;;;5051759;28;20025;-76
2022/09/15 08:14:41;;;;;;;6.20;4.50;;;15.60;99.90;;;;;;5039826;28;20029;-76
2022/09/15 08:17:07;;;;;;;6.40;5.25;;;15.40;99.90;;;;;;5041827;28;20447;-75
2022/09/15 08:19:34;;;;;;;7.10;5.97;;;15.10;99.90;;;;;;5049011;28;20039;-75
2022/09/15 08:22:00;;;;;;;7.95;5.93;;;15.10;99.90;;;;;;5039319;28;20017;-75
2022/09/15 08:24:27;;;;;;;7.55;6.38;;;15.00;99.90;;;;;;5042522;28;20025;-75
2022/09/15 08:26:53;;;;;;;8.73;6.70;;;15.00;99.90;;;;;;5036969;28;20025;-76
2022/09/15 08:29:19;;;;;;;8.10;6.15;;;15.00;99.90;;;;;;5047300;28;20096;-75
2022/09/15 08:31:46;;;;;;;6.38;5.78;;;15.20;99.90;;;;;;5036183;28;20029;-75
2022/09/15 08:34:13;;;;;;;5.55;4.80;;;15.40;99.90;;;;;;5035007;28;20025;-75
2022/09/15 08:36:39;;;;;;;5.18;3.05;;;15.70;99.90;;;;;;5046208;28;20088;-75
2022/09/15 08:39:05;;;;;;;3.53;3.22;;;15.60;99.90;;;;;;5045723;28;20103;-75
2022/09/15 08:41:32;;;;;;;3.42;3.08;;;15.60;99.90;;;;;;5046312;28;20033;-75
2022/09/15 08:44:22;;;;;;;3.35;2.60;;;15.60;99.90;;;;;;5038264;28;20084;-76
2022/09/15 08:47:11;;;;;;;3.65;2.75;;;15.80;99.90;;;;;;5040351;28;20021;-73
2022/09/15 08:49:41;;;;;;;5.80;3.40;;;15.90;99.90;;;;;;5036114;28;20411;-75
2022/09/15 08:52:14;;;;;;;3.83;2.88;;;15.80;99.90;;;;;;5034202;28;20112;-74
2022/09/15 08:54:40;;;;;;;3.83;3.33;;;15.70;99.90;;;;;;5044567;28;20039;-76
2022/09/15 08:57:12;;;;;;;4.35;3.40;;;15.70;99.90;;;;;;5044976;28;20124;-76
2022/09/15 08:59:38;;;;;;;4.30;3.65;;;15.90;99.90;;;;;;5030665;28;20029;-75
2022/09/15 09:02:25;;;;;;;4.93;3.88;;;16.20;99.90;;;;;;5043937;28;20061;-74
2022/09/15 09:05:01;;;;;;;;;;;16.20;99.90;;;;;;5043107;28;20066;-75
2022/09/15 09:08:06;;;;;;;5.50;4.82;;;16.20;99.90;;;;;;5045814;28;19909;-75
2022/09/15 09:10:55;;;;;;;5.90;5.28;;;16.60;99.90;;;;;;5041659;28;20022;-75
2022/09/15 09:13:36;;;;;;;5.28;4.78;;;16.60;99.90;;;;;;5031845;28;20040;-73
2022/09/15 09:16:23;;;;;;;6.40;5.43;;;16.60;99.90;;;;;;5030437;28;20076;-75
2022/09/15 09:18:59;;;;;;;5.78;4.80;;;16.70;99.90;;;;;;5042944;28;20509;-74
2022/09/15 09:21:31;;;;;;;8.65;5.53;;;16.50;99.90;;;;;;5037484;28;20391;-75
2022/09/15 09:24:13;;;;;;;7.32;5.50;;;16.50;99.90;;;;;;5037282;28;20514;-75
2022/09/15 09:26:39;;;;;;;9.45;5.85;;;16.60;99.90;;;;;;5031800;28;20033;-75
2022/09/15 09:29:16;;;;;;;7.22;4.90;;;16.50;99.90;;;;;;5047378;28;20025;-76
2022/09/15 09:31:43;;;;;;;5.72;5.20;;;16.30;99.90;;;;;;5051537;28;20083;-75
2022/09/15 09:34:14;;;;;;;8.50;5.07;;;16.20;99.90;;;;;;5046041;28;20048;-76
2022/09/15 09:36:41;;;;;;;6.40;5.10;;;16.10;99.90;;;;;;5043418;28;20028;-76
2022/09/15 09:39:12;;;;;;;7.60;5.30;;;16.30;99.90;;;;;;5032454;28;20388;-77
2022/09/15 09:41:40;;;;;;;6.05;5.10;;;16.50;99.90;;;;;;5044661;28;20021;-76
2022/09/15 09:44:11;;;;;;;6.43;5.20;;;16.90;99.90;;;;;;5038097;28;20048;-76
2022/09/15 09:46:37;;;;;;;6.82;5.20;;;16.90;99.90;;;;;;5039242;28;20018;-75
2022/09/15 09:49:18;;;;;;;6.03;4.75;;;17.00;99.90;;;;;;5042107;28;20104;-76
2022/09/15 09:51:55;;;;;;;7.70;4.30;;;17.20;99.90;;;;;;5040037;28;20222;-76
2022/09/15 09:54:27;;;;;;;5.55;4.85;;;17.30;99.90;;;;;;5044672;28;20170;-76
2022/09/15 09:56:54;;;;;;;7.53;5.47;;;17.30;99.90;;;;;;5041780;28;20036;-75
2022/09/15 09:59:39;;;;;;;6.47;5.13;;;17.40;99.90;;;;;;5044303;28;20490;-76
2022/09/15 10:02:04;;;;;;;7.43;4.85;;;17.50;99.90;;;;;;5034618;28;20056;-76
2022/09/15 10:04:30;;;;;;;7.13;5.25;;;17.50;99.90;;;;;;5043018;28;20372;-76
2022/09/15 10:06:56;;;;;;;7.82;4.50;;;17.20;99.90;;;;;;5059981;28;20097;-76
2022/09/15 10:09:21;;;;;;;7.90;5.13;;;17.00;99.90;;;;;;5034831;28;20026;-76
2022/09/15 10:11:55;;;;;;;10.45;5.38;;;16.90;99.90;;;;;;5054014;28;20429;-75
2022/09/15 10:14:39;;;;;;;5.75;5.07;;;16.80;99.90;;;;;;5040496;28;20029;-75
2022/09/15 10:17:08;;;;;;;8.65;5.93;;;16.90;99.90;;;;;;5045363;28;20029;-74
2022/09/15 10:19:41;;;;;;;10.50;5.97;;;16.80;99.90;;;;;;5054361;28;20025;-75
2022/09/15 10:22:07;;;;;;;9.80;5.78;;;16.90;99.90;;;;;;5054716;28;20071;-75
2022/09/15 10:24:38;;;;;;;8.52;5.70;;;16.90;99.90;;;;;;5054879;28;20450;-74
2022/09/15 10:27:19;;;;;;;9.80;5.93;;;16.70;99.90;;;;;;5054675;28;20070;-74
2022/09/15 10:29:46;;;;;;;9.05;6.30;;;16.50;99.90;;;;;;5054764;28;20050;-74
2022/09/15 10:32:30;;;;;;;8.38;5.88;;;16.60;99.90;;;;;;5053441;28;20060;-75
2022/09/15 10:35:10;;;;;;;8.55;6.00;;;16.60;99.90;;;;;;5054390;28;20025;-74
2022/09/15 10:37:58;;;;;;;9.55;5.82;;;16.70;99.90;;;;;;5054934;28;20028;-74
2022/09/15 10:40:33;;;;;;;8.00;5.68;;;17.20;99.90;;;;;;5054336;28;20029;-74
2022/09/15 10:43:16;;;;;;;8.35;6.10;;;17.30;99.90;;;;;;5034592;28;20077;-75
2022/09/15 10:45:53;;;;;;;11.40;6.50;;;17.00;99.90;;;;;;5040807;28;20021;-74
2022/09/15 10:48:34;;;;;;;9.60;6.25;;;17.10;99.90;;;;;;5045648;28;20026;-75
2022/09/15 10:51:05;;;;;;;7.70;5.78;;;16.90;99.90;;;;;;5035144;28;20447;-75
2022/09/15 10:53:46;;;;;;;10.05;5.95;;;17.00;99.90;;;;;;5038602;28;20033;-75
2022/09/15 10:56:35;;;;;;;7.03;6.10;;;17.40;99.90;;;;;;5054356;28;20021;-74
2022/09/15 10:59:23;;;;;;;8.30;5.88;;;17.10;99.90;;;;;;5053671;28;20029;-75
2022/09/15 11:02:18;;;;;;;9.98;5.82;;;17.10;99.90;;;;;;5040910;28;20108;-74
2022/09/15 11:05:03;;;;;;;6.95;5.55;;;17.10;99.90;;;;;;5053970;28;20031;-75
2022/09/15 11:07:43;;;;;;;10.73;5.40;;;17.10;99.90;;;;;;5040854;28;20179;-75
2022/09/15 11:10:26;;;;;;;7.40;5.28;;;17.10;99.90;;;;;;5032925;28;20499;-75
2022/09/15 11:13:11;;;;;;;9.75;5.25;;;17.40;99.90;;;;;;5047025;28;20029;-75
2022/09/15 11:16:02;;;;;;;8.45;4.97;;;17.40;99.90;;;;;;5042144;28;20545;-74
2022/09/15 11:18:41;;;;;;;6.45;4.50;;;17.70;99.90;;;;;;5033499;28;20034;-75
2022/09/15 11:21:31;;;;;;;6.70;3.75;;;17.50;99.90;;;;;;5049826;28;20025;-74
2022/09/15 11:24:21;;;;;;;7.18;3.67;;;17.40;99.90;;;;;;5052313;28;20107;-74
2022/09/15 11:27:15;;;;;;;6.45;3.38;;;17.60;99.90;;;;;;5053229;28;20049;-77
2022/09/15 11:30:04;;;;;;;8.02;3.60;;;18.00;99.90;;;;;;5037723;28;20045;-78
2022/09/15 11:32:39;;;;;;;5.85;3.47;;;18.00;99.90;;;;;;5052364;28;20078;-75
2022/09/15 11:35:35;;;;;;;7.78;3.30;;;18.30;99.90;;;;;;5053424;28;20098;-74
2022/09/15 11:38:41;;;;;;;6.25;3.35;;;18.10;99.90;;;;;;5048437;28;20029;-74
2022/09/15 11:41:10;;;;;;;4.93;3.10;;;18.20;99.90;;;;;;5037756;28;20017;-74
2022/09/15 11:43:47;;;;;;;6.35;3.22;;;18.20;99.90;;;;;;5050405;28;20029;-74
2022/09/15 11:46:22;;;;;;;4.95;2.95;;;18.00;99.90;;;;;;5051077;28;20070;-75
2022/09/15 11:48:53;;;;;;;3.97;3.10;;;17.80;99.90;;;;;;5043550;28;20028;-75
2022/09/15 11:51:22;;;;;;;8.18;3.35;;;17.50;99.90;;;;;;5044249;28;20025;-75
2022/09/15 11:54:06;;;;;;;8.70;3.35;;;17.50;99.90;;;;;;5040678;28;20028;-75
2022/09/15 11:56:39;;;;;;;5.28;3.47;;;17.60;99.90;;;;;;5044951;28;20021;-74
2022/09/15 11:59:27;;;;;;;5.65;2.50;;;18.00;99.90;;;;;;5042863;28;20026;-75
2022/09/15 12:02:35;;;;;;;6.60;2.72;;;18.30;99.90;;;;;;5031817;28;20083;-75
2022/09/15 12:05:30;;;;;;;4.57;2.90;;;18.80;99.90;;;;;;5045199;28;20534;-75
2022/09/15 12:08:09;;;;;;;4.47;2.90;;;19.00;99.90;;;;;;5041481;28;20022;-75
2022/09/15 12:10:54;;;;;;;5.15;2.90;;;19.40;99.90;;;;;;5032324;28;20049;-75
2022/09/15 12:13:23;;;;;;;4.45;2.60;;;19.40;99.90;;;;;;5032815;28;20028;-75
2022/09/15 12:15:50;;;;;;;3.72;2.60;;;18.60;99.90;;;;;;5031695;28;20372;-75
2022/09/15 12:18:38;;;;;;;6.75;2.60;;;19.50;99.90;;;;;;5032424;28;20037;-75
2022/09/15 12:21:15;;;;;;;5.30;2.80;;;19.00;99.90;;;;;;5045975;28;20025;-74
2022/09/15 12:23:59;;;;;;;4.00;2.50;;;19.00;99.90;;;;;;5044468;28;20025;-74
2022/09/15 12:26:26;;;;;;;4.40;2.75;;;18.90;99.90;;;;;;5040111;28;20025;-75
2022/09/15 12:28:53;;;;;;;6.18;2.80;;;18.30;99.90;;;;;;5037408;28;20029;-74
2022/09/15 12:31:22;;;;;;;5.07;2.67;;;18.50;99.90;;;;;;5044747;28;20071;-74
2022/09/15 12:34:24;;;;;;;5.75;2.88;;;19.50;99.90;;;;;;5045827;28;20036;-74
2022/09/15 12:36:52;;;;;;;2.63;2.25;;;19.70;99.90;;;;;;5045296;28;20035;-75
2022/09/15 12:39:17;;;;;;;4.40;2.58;;;19.10;99.90;;;;;;5039404;28;20032;-74
2022/09/15 12:41:53;;;;;;;3.95;2.25;;;18.50;99.90;;;;;;5037486;28;20025;-74
2022/09/15 12:44:34;;;;;;;5.03;2.45;;;17.90;99.90;;;;;;5042869;28;20056;-74
2022/09/15 12:47:04;;;;;;;4.30;2.30;;;17.70;99.90;;;;;;5045669;28;20371;-74
2022/09/15 12:49:40;;;;;;;2.72;2.00;;;17.50;99.90;;;;;;5043086;28;20024;-74
2022/09/15 12:52:07;;;;;;;4.55;2.20;;;17.60;99.90;;;;;;5038874;28;20025;-74
2022/09/15 12:54:34;;;;;;;3.85;2.22;;;17.60;99.90;;;;;;5038149;28;20079;-74
2022/09/15 12:57:00;;;;;;;5.65;2.40;;;17.70;99.90;;;;;;5045420;28;20022;-74
2022/09/15 12:59:27;;;;;;;3.50;2.35;;;17.60;99.90;;;;;;5043481;28;20036;-74
2022/09/15 13:01:54;;;;;;;4.22;2.13;;;17.70;99.90;;;;;;5045629;28;20017;-74
2022/09/15 13:04:42;;;;;;;3.70;2.20;;;17.70;99.90;;;;;;5044269;28;20025;-74
2022/09/15 13:07:14;;;;;;;4.07;2.33;;;17.80;99.90;;;;;;5039355;28;20017;-74
2022/09/15 13:09:45;;;;;;;3.53;2.30;;;17.70;99.90;;;;;;5035735;28;20457;-74